createdAt,value
2017-05-13T00:02:26.861Z,100189
2017-05-13T00:04:56.601Z,100162
2017-05-13T00:07:26.095Z,100182
2017-05-13T00:09:55.603Z,100187
2017-05-13T00:12:25.093Z,100182
2017-05-13T00:14:54.611Z,100199
2017-05-13T00:17:24.119Z,100200
2017-05-13T00:19:53.624Z,100204
2017-05-13T00:22:23.131Z,100205
2017-05-13T00:24:52.682Z,100218
2017-05-13T00:27:22.144Z,100216
2017-05-13T00:29:51.638Z,100210
2017-05-13T00:32:21.164Z,100209
2017-05-13T00:34:50.459Z,100220
2017-05-13T00:37:19.967Z,100210
2017-05-13T00:39:49.470Z,100217
2017-05-13T00:42:18.961Z,100213
2017-05-13T00:44:48.483Z,100218
2017-05-13T00:47:17.859Z,100219
2017-05-13T00:49:47.904Z,100210
2017-05-13T00:52:17.410Z,100221
2017-05-13T00:54:46.917Z,100216
2017-05-13T00:57:16.422Z,100216
2017-05-13T00:59:46.136Z,100228
2017-05-13T01:02:15.425Z,100217
2017-05-13T01:04:44.942Z,100209
2017-05-13T01:07:14.243Z,100219
2017-05-13T01:09:43.548Z,100214
2017-05-13T01:12:13.052Z,100226
2017-05-13T01:14:42.557Z,100223
2017-05-13T01:17:11.806Z,100232
2017-05-13T01:19:41.571Z,100225
2017-05-13T01:22:11.080Z,100225
2017-05-13T01:24:40.379Z,100242
2017-05-13T01:27:10.089Z,100234
2017-05-13T01:29:40.005Z,100238
2017-05-13T01:32:09.305Z,100243
2017-05-13T01:34:38.802Z,100243
2017-05-13T01:37:08.307Z,100244
2017-05-13T01:39:37.637Z,99970
2017-05-13T01:42:06.968Z,100251
2017-05-13T01:44:36.430Z,100258
2017-05-13T01:47:06.550Z,100255
2017-05-13T01:49:36.045Z,100267
2017-05-13T01:52:06.596Z,100262
2017-05-13T01:54:35.884Z,100270
2017-05-13T01:57:05.395Z,100265
2017-05-13T01:59:34.904Z,100267
2017-05-13T02:02:06.254Z,100271
2017-05-13T02:04:35.744Z,100273
2017-05-13T02:07:05.265Z,100273
2017-05-13T02:09:34.978Z,100272
2017-05-13T02:12:04.276Z,100281
2017-05-13T02:14:33.571Z,100271
2017-05-13T02:17:03.291Z,100271
2017-05-13T02:19:33.205Z,100267
2017-05-13T02:22:02.710Z,100273
2017-05-13T02:24:32.422Z,100276
2017-05-13T02:27:01.923Z,100272
2017-05-13T02:29:31.642Z,100266
2017-05-13T02:32:01.146Z,100275
2017-05-13T02:34:30.652Z,100266
2017-05-13T02:36:59.955Z,100276
2017-05-13T02:39:29.730Z,100270
2017-05-13T02:41:59.580Z,100269
2017-05-13T02:44:29.201Z,100276
2017-05-13T02:46:58.502Z,100275
2017-05-13T02:49:28.010Z,100268
2017-05-13T02:51:57.505Z,100269
2017-05-13T02:54:26.802Z,100268
2017-05-13T02:56:56.118Z,100269
2017-05-13T02:59:25.625Z,100267
2017-05-13T03:01:55.320Z,100279
2017-05-13T03:04:24.641Z,100281
2017-05-13T03:06:53.941Z,100275
2017-05-13T03:12:02.361Z,100272
2017-05-13T03:14:31.674Z,100267
2017-05-13T03:17:00.977Z,100253
2017-05-13T03:19:30.480Z,100262
2017-05-13T03:22:00.179Z,100265
2017-05-13T03:24:29.689Z,100264
2017-05-13T03:26:58.979Z,100270
2017-05-13T03:29:28.308Z,100272
2017-05-13T03:31:57.592Z,100271
2017-05-13T03:34:27.114Z,100273
2017-05-13T03:36:56.413Z,100280
2017-05-13T03:39:26.124Z,100288
2017-05-13T03:41:55.407Z,100296
2017-05-13T03:44:25.594Z,100300
2017-05-13T03:46:54.840Z,100304
2017-05-13T03:49:24.343Z,100298
2017-05-13T03:51:53.631Z,100298
2017-05-13T03:54:23.164Z,100304
2017-05-13T03:56:52.666Z,100305
2017-05-13T03:59:21.959Z,100306
2017-05-13T04:01:51.239Z,100293
2017-05-13T04:04:20.571Z,100306
2017-05-13T04:06:50.285Z,100308
2017-05-13T04:09:19.791Z,100306
2017-05-13T04:11:49.034Z,100310
2017-05-13T04:14:18.582Z,100307
2017-05-13T04:16:48.105Z,100311
2017-05-13T04:19:17.610Z,100318
2017-05-13T04:21:46.909Z,100322
2017-05-13T04:24:16.621Z,100322
2017-05-13T04:26:46.135Z,100320
2017-05-13T04:29:15.640Z,100326
2017-05-13T04:31:45.552Z,100336
2017-05-13T04:34:15.057Z,100341
2017-05-13T04:36:44.762Z,100337
2017-05-13T04:39:14.867Z,100335
2017-05-13T04:41:44.197Z,100342
2017-05-13T04:44:13.699Z,100346
2017-05-13T04:46:43.613Z,100335
2017-05-13T04:49:13.768Z,100339
2017-05-13T04:51:44.274Z,100335
2017-05-13T04:54:18.848Z,100336
2017-05-13T04:56:48.589Z,100347
2017-05-13T04:59:18.151Z,100349
2017-05-13T05:01:47.612Z,100354
2017-05-13T05:04:16.913Z,100357
2017-05-13T05:06:46.426Z,100361
2017-05-13T05:09:16.541Z,100361
2017-05-13T05:11:46.338Z,100363
2017-05-13T05:14:15.763Z,100360
2017-05-13T05:16:45.702Z,100364
2017-05-13T05:19:15.246Z,100354
2017-05-13T05:21:44.749Z,100367
2017-05-13T05:24:14.196Z,100373
2017-05-13T05:26:43.907Z,100377
2017-05-13T05:29:13.619Z,100370
2017-05-13T05:31:42.933Z,100382
2017-05-13T05:34:12.409Z,100371
2017-05-13T05:36:41.716Z,100379
2017-05-13T05:39:10.997Z,100370
2017-05-13T05:41:40.721Z,100381
2017-05-13T05:44:10.027Z,100385
2017-05-13T05:46:39.329Z,100376
2017-05-13T05:49:09.305Z,100389
2017-05-13T05:51:38.762Z,100382
2017-05-13T05:54:08.052Z,100392
2017-05-13T05:56:37.366Z,100388
2017-05-13T05:59:06.874Z,100406
2017-05-13T06:01:36.384Z,100416
2017-05-13T06:04:05.888Z,100403
2017-05-13T06:06:35.189Z,100409
2017-05-13T06:09:05.512Z,100418
2017-05-13T06:11:35.017Z,100420
2017-05-13T06:14:04.520Z,100422
2017-05-13T06:16:33.787Z,100427
2017-05-13T06:19:03.173Z,100428
2017-05-13T06:21:32.419Z,100433
2017-05-13T06:24:01.777Z,100426
2017-05-13T06:26:31.082Z,100433
2017-05-13T06:29:00.795Z,100429
2017-05-13T06:31:30.082Z,100427
2017-05-13T06:33:59.491Z,100440
2017-05-13T06:36:28.852Z,100438
2017-05-13T06:38:58.348Z,100446
2017-05-13T06:41:27.869Z,100440
2017-05-13T06:43:57.579Z,100446
2017-05-13T06:46:26.915Z,100443
2017-05-13T06:48:56.174Z,100458
2017-05-13T06:51:25.685Z,100453
2017-05-13T06:53:56.218Z,100462
2017-05-13T06:56:25.719Z,100465
2017-05-13T06:58:55.237Z,100453
2017-05-13T07:01:24.736Z,100458
2017-05-13T07:03:54.447Z,100458
2017-05-13T07:06:24.366Z,100463
2017-05-13T07:08:53.858Z,100472
2017-05-13T07:11:23.169Z,100476
2017-05-13T07:13:52.474Z,100475
2017-05-13T07:16:21.775Z,100476
2017-05-13T07:18:51.063Z,100479
2017-05-13T07:21:20.585Z,100482
2017-05-13T07:23:49.894Z,100473
2017-05-13T07:26:19.390Z,100489
2017-05-13T07:28:49.306Z,100479
2017-05-13T07:31:18.810Z,100493
2017-05-13T07:33:48.724Z,100487
2017-05-13T07:36:18.030Z,100503
2017-05-13T07:38:47.331Z,100501
2017-05-13T07:41:17.036Z,100507
2017-05-13T07:43:46.370Z,100509
2017-05-13T07:46:16.054Z,100513
2017-05-13T07:48:45.355Z,100511
2017-05-13T07:51:15.271Z,100505
2017-05-13T07:53:49.973Z,100514
2017-05-13T07:56:19.602Z,100526
2017-05-13T07:58:49.114Z,100530
2017-05-13T08:01:23.755Z,100527
2017-05-13T08:03:53.153Z,100535
2017-05-13T08:06:22.434Z,100527
2017-05-13T08:08:51.958Z,100540
2017-05-13T08:11:21.666Z,100539
2017-05-13T08:13:51.173Z,100534
2017-05-13T08:16:20.883Z,100534
2017-05-13T08:18:50.393Z,100551
2017-05-13T08:21:19.690Z,100542
2017-05-13T08:23:49.186Z,100548
2017-05-13T08:26:18.491Z,100537
2017-05-13T08:28:48.207Z,100546
2017-05-13T08:31:19.323Z,100548
2017-05-13T08:33:49.267Z,100551
2017-05-13T08:36:18.567Z,100552
2017-05-13T08:38:48.308Z,100484
2017-05-13T08:41:18.814Z,100562
2017-05-13T08:43:48.305Z,100560
2017-05-13T08:46:21.085Z,100554
2017-05-13T08:48:57.249Z,100561
2017-05-13T08:51:35.928Z,100552
2017-05-13T08:54:08.190Z,100562
2017-05-13T08:56:38.426Z,100546
2017-05-13T08:59:10.761Z,100550
2017-05-13T09:01:40.199Z,100553
2017-05-13T09:04:10.379Z,100557
2017-05-13T09:06:39.685Z,100565
2017-05-13T09:09:09.799Z,100568
2017-05-13T09:11:40.497Z,100573
2017-05-13T09:14:10.910Z,100565
2017-05-13T09:16:40.269Z,100562
2017-05-13T09:19:09.864Z,100576
2017-05-13T09:21:41.271Z,100582
2017-05-13T09:24:12.502Z,100590
2017-05-13T09:26:43.812Z,100606
2017-05-13T09:29:14.036Z,100603
2017-05-13T09:31:45.739Z,100597
2017-05-13T09:34:15.200Z,100598
2017-05-13T09:36:44.502Z,100599
2017-05-13T09:39:17.663Z,100601
2017-05-13T09:41:47.608Z,100602
2017-05-13T09:44:16.915Z,100608
2017-05-13T09:46:47.950Z,100607
2017-05-13T09:49:17.360Z,100615
2017-05-13T09:51:47.070Z,100615
2017-05-13T09:54:16.364Z,100604
2017-05-13T09:56:45.883Z,100610
2017-05-13T09:59:15.383Z,100611
2017-05-13T10:01:44.698Z,100578
2017-05-13T10:04:14.399Z,100611
2017-05-13T10:06:43.697Z,100616
2017-05-13T10:09:13.616Z,100605
2017-05-13T10:11:43.123Z,100607
2017-05-13T10:14:12.626Z,100602
2017-05-13T10:16:41.921Z,100604
2017-05-13T10:19:11.418Z,100600
2017-05-13T10:21:40.749Z,100598
2017-05-13T10:24:10.026Z,100599
2017-05-13T10:26:39.342Z,100594
2017-05-13T10:29:09.142Z,100575
2017-05-13T10:31:38.571Z,100575
2017-05-13T10:34:08.267Z,100580
2017-05-13T10:36:37.554Z,100580
2017-05-13T10:39:07.485Z,100571
2017-05-13T10:41:37.196Z,100570
2017-05-13T10:44:06.499Z,100572
2017-05-13T10:46:36.013Z,100574
2017-05-13T10:49:05.919Z,100570
2017-05-13T10:51:35.423Z,100574
2017-05-13T10:54:07.148Z,100577
2017-05-13T10:56:37.254Z,100574
2017-05-13T10:59:06.603Z,100575
2017-05-13T11:01:36.507Z,100581
2017-05-13T11:04:05.819Z,100596
2017-05-13T11:06:35.121Z,100576
2017-05-13T11:09:04.921Z,100589
2017-05-13T11:11:34.204Z,100570
2017-05-13T11:14:03.506Z,100569
2017-05-13T11:16:32.780Z,100590
2017-05-13T11:19:02.655Z,100597
2017-05-13T11:21:32.377Z,100609
2017-05-13T11:24:01.973Z,100615
2017-05-13T11:26:31.478Z,100625
2017-05-13T11:29:12.563Z,100631
2017-05-13T11:31:42.773Z,100632
2017-05-13T11:34:12.696Z,100624
2017-05-13T11:36:42.204Z,100635
2017-05-13T11:39:11.706Z,100627
2017-05-13T11:41:41.217Z,100635
2017-05-13T11:44:10.516Z,100651
2017-05-13T11:46:39.917Z,100655
2017-05-13T11:49:26.619Z,100662
2017-05-13T11:52:14.933Z,100658
2017-05-13T11:54:50.964Z,100648
2017-05-13T11:57:21.612Z,100650
2017-05-13T11:59:51.280Z,100655
2017-05-13T12:02:20.985Z,100664
2017-05-13T12:04:50.491Z,100660
2017-05-13T12:07:19.997Z,100666
2017-05-13T12:09:50.836Z,100658
2017-05-13T12:12:20.334Z,100659
2017-05-13T12:14:49.642Z,100669
2017-05-13T12:17:19.149Z,100662
2017-05-13T12:19:49.383Z,100669
2017-05-13T12:22:18.762Z,100674
2017-05-13T12:24:48.302Z,100666
2017-05-13T12:27:18.200Z,100672
2017-05-13T12:29:47.704Z,100677
2017-05-13T12:32:17.416Z,100670
2017-05-13T12:34:47.132Z,100678
2017-05-13T12:37:17.247Z,100671
2017-05-13T12:39:46.837Z,100665
2017-05-13T12:42:16.258Z,100654
2017-05-13T12:44:45.566Z,100656
2017-05-13T12:47:14.876Z,100666
2017-05-13T12:49:44.202Z,100667
2017-05-13T12:52:14.938Z,100668
2017-05-13T12:54:44.518Z,100665
2017-05-13T12:57:14.039Z,100676
2017-05-13T12:59:43.523Z,100680
2017-05-13T13:02:13.027Z,100676
2017-05-13T13:04:43.251Z,100680
2017-05-13T13:07:12.963Z,100668
2017-05-13T13:09:42.470Z,100676
2017-05-13T13:12:12.383Z,100684
2017-05-13T13:14:41.678Z,100689
2017-05-13T13:17:10.947Z,100677
2017-05-13T13:19:40.250Z,100682
2017-05-13T13:22:09.527Z,100686
2017-05-13T13:24:38.821Z,100702
2017-05-13T13:27:08.154Z,100707
2017-05-13T13:29:37.483Z,100714
2017-05-13T13:32:06.794Z,100699
2017-05-13T13:34:36.506Z,100689
2017-05-13T13:37:06.015Z,100681
2017-05-13T13:39:35.520Z,100679
2017-05-13T13:42:05.995Z,100666
2017-05-13T13:44:35.351Z,100663
2017-05-13T13:47:06.914Z,100666
2017-05-13T13:49:36.657Z,100670
2017-05-13T13:52:06.532Z,100668
2017-05-13T13:54:36.434Z,100681
2017-05-13T13:57:11.551Z,100674
2017-05-13T13:59:40.992Z,100683
2017-05-13T14:02:10.497Z,100683
2017-05-13T14:04:41.224Z,100692
2017-05-13T14:07:14.050Z,100700
2017-05-13T14:09:43.520Z,100693
2017-05-13T14:12:13.221Z,100707
2017-05-13T14:14:42.576Z,100699
2017-05-13T14:17:12.038Z,100700
2017-05-13T14:19:41.342Z,100696
2017-05-13T14:22:11.041Z,100711
2017-05-13T14:24:40.339Z,100726
2017-05-13T14:27:09.645Z,100737
2017-05-13T14:29:39.367Z,100722
2017-05-13T14:32:08.970Z,100718
2017-05-13T14:34:38.485Z,100720
2017-05-13T14:37:07.989Z,100714
2017-05-13T14:39:37.496Z,100708
2017-05-13T14:42:06.795Z,100712
2017-05-13T14:44:36.291Z,100708
2017-05-13T14:47:05.532Z,100698
2017-05-13T14:49:34.807Z,100708
2017-05-13T14:52:05.028Z,100710
2017-05-13T14:54:34.532Z,100709
2017-05-13T14:57:04.439Z,100708
2017-05-13T14:59:33.958Z,100706
2017-05-13T15:02:03.668Z,100707
2017-05-13T15:04:33.377Z,100704
2017-05-13T15:07:02.678Z,100699
2017-05-13T15:09:32.389Z,100705
2017-05-13T15:12:01.901Z,100709
2017-05-13T15:14:31.391Z,100707
2017-05-13T15:17:00.909Z,100709
2017-05-13T15:19:30.402Z,100710
2017-05-13T15:21:59.718Z,100718
2017-05-13T15:24:29.428Z,100709
2017-05-13T15:26:59.150Z,100713
2017-05-13T15:29:28.851Z,100715
2017-05-13T15:31:58.567Z,100714
2017-05-13T15:34:28.069Z,100705
2017-05-13T15:36:57.573Z,100710
2017-05-13T15:39:27.082Z,100712
2017-05-13T15:41:56.385Z,100710
2017-05-13T15:44:26.298Z,100712
2017-05-13T15:46:55.598Z,100720
2017-05-13T15:49:25.722Z,100724
2017-05-13T15:51:55.213Z,100715
2017-05-13T15:54:25.155Z,100715
2017-05-13T15:56:54.852Z,100719
2017-05-13T15:59:24.133Z,100723
2017-05-13T16:01:53.447Z,100707
2017-05-13T16:04:22.978Z,100729
2017-05-13T16:06:52.466Z,100723
2017-05-13T16:09:21.767Z,100723
2017-05-13T16:11:51.068Z,100729
2017-05-13T16:14:20.779Z,100721
2017-05-13T16:16:50.276Z,100725
2017-05-13T16:19:19.791Z,100724
2017-05-13T16:21:49.707Z,100726
2017-05-13T16:24:19.215Z,100723
2017-05-13T16:26:48.509Z,100728
2017-05-13T16:29:18.433Z,100726
2017-05-13T16:31:49.782Z,100725
2017-05-13T16:34:19.081Z,100717
2017-05-13T16:36:48.793Z,100712
2017-05-13T16:39:18.130Z,100710
2017-05-13T16:41:47.587Z,100712
2017-05-13T16:44:17.105Z,100710
2017-05-13T16:46:46.844Z,100711
2017-05-13T16:49:16.348Z,100716
2017-05-13T16:51:45.806Z,100721
2017-05-13T16:54:15.337Z,100713
2017-05-13T16:56:44.836Z,100713
2017-05-13T16:59:14.350Z,100723
2017-05-13T17:01:43.855Z,100731
2017-05-13T17:04:13.343Z,100733
2017-05-13T17:06:42.872Z,100738
2017-05-13T17:09:12.171Z,100742
2017-05-13T17:11:41.757Z,100744
2017-05-13T17:14:11.774Z,100744
2017-05-13T17:16:41.098Z,100745
2017-05-13T17:19:11.109Z,100743
2017-05-13T17:21:41.147Z,100752
2017-05-13T17:24:10.640Z,100758
2017-05-13T17:26:40.149Z,100752
2017-05-13T17:29:09.657Z,100756
2017-05-13T17:31:39.160Z,100501
2017-05-13T17:34:08.869Z,100754
2017-05-13T17:36:38.584Z,100762
2017-05-13T17:39:08.296Z,100766
2017-05-13T17:41:38.696Z,100765
2017-05-13T17:44:09.352Z,100784
2017-05-13T17:46:39.062Z,100785
2017-05-13T17:49:08.346Z,100793
2017-05-13T17:51:37.636Z,100806
2017-05-13T17:54:06.954Z,100817
2017-05-13T17:56:36.465Z,100848
2017-05-13T17:59:06.374Z,100860
2017-05-13T18:01:36.223Z,100854
2017-05-13T18:04:05.582Z,100875
2017-05-13T18:06:35.038Z,100885
2017-05-13T18:09:05.441Z,100899
2017-05-13T18:11:35.967Z,100904
2017-05-13T18:14:05.678Z,100914
2017-05-13T18:16:35.188Z,100912
2017-05-13T18:19:04.898Z,100916
2017-05-13T18:21:35.026Z,100919
2017-05-13T18:24:04.524Z,100916
2017-05-13T18:26:34.134Z,100921
2017-05-13T18:29:03.537Z,100920
2017-05-13T18:31:33.044Z,100930
2017-05-13T18:34:02.548Z,100929
2017-05-13T18:36:32.054Z,100933
2017-05-13T18:39:01.565Z,100935
2017-05-13T18:41:31.276Z,100928
2017-05-13T18:44:01.597Z,100940
2017-05-13T18:46:31.103Z,100954
2017-05-13T18:49:00.609Z,100957
2017-05-13T18:51:30.526Z,100958
2017-05-13T18:53:59.930Z,100965
2017-05-13T18:56:29.526Z,100968
2017-05-13T18:58:59.047Z,100963
2017-05-13T19:01:28.551Z,100957
2017-05-13T19:03:58.057Z,100940
2017-05-13T19:06:27.553Z,100945
2017-05-13T19:08:57.160Z,100933
2017-05-13T19:11:26.986Z,100936
2017-05-13T19:13:56.700Z,100931
2017-05-13T19:16:26.413Z,100930
2017-05-13T19:18:55.914Z,100919
2017-05-13T19:21:25.421Z,100922
2017-05-13T19:23:54.928Z,100909
2017-05-13T19:26:24.419Z,100892
2017-05-13T19:28:53.939Z,100884
2017-05-13T19:31:23.650Z,100878
2017-05-13T19:33:53.098Z,100885
2017-05-13T19:36:22.459Z,100897
2017-05-13T19:38:52.068Z,100895
2017-05-13T19:41:21.458Z,100902
2017-05-13T19:43:50.965Z,100895
2017-05-13T19:46:20.486Z,100890
2017-05-13T19:48:50.199Z,100888
2017-05-13T19:51:19.690Z,100884
2017-05-13T19:53:49.123Z,100893
2017-05-13T19:56:18.409Z,100891
2017-05-13T19:58:48.016Z,100900
2017-05-13T20:01:17.729Z,100902
2017-05-13T20:03:47.237Z,100898
2017-05-13T20:06:16.745Z,100898
2017-05-13T20:08:46.454Z,100893
2017-05-13T20:11:16.164Z,100901
2017-05-13T20:13:46.283Z,100911
2017-05-13T21:14:29.117Z,100980
2017-05-13T21:16:58.826Z,100969
2017-05-13T21:19:28.338Z,100971
2017-05-13T21:21:57.844Z,100962
2017-05-13T21:24:27.350Z,100948
2017-05-13T21:26:57.059Z,100949
2017-05-13T21:29:26.770Z,100935
2017-05-13T21:31:56.265Z,100930
2017-05-13T21:34:25.975Z,100924
2017-05-13T21:36:59.999Z,100921
2017-05-13T21:39:29.924Z,100922
2017-05-13T21:41:59.833Z,100935
2017-05-13T21:44:29.338Z,100928
2017-05-13T21:46:59.053Z,100934
2017-05-13T21:49:28.542Z,100941
2017-05-13T21:51:57.855Z,100946
2017-05-13T21:54:27.352Z,100940
2017-05-13T21:56:56.867Z,100944
2017-05-13T21:59:26.174Z,100953
2017-05-13T22:01:55.678Z,100957
2017-05-13T22:04:25.591Z,100965
2017-05-13T22:06:55.305Z,100959
2017-05-13T22:09:24.604Z,100957
2017-05-13T22:11:54.110Z,100959
2017-05-13T22:14:23.618Z,100961
2017-05-13T22:16:53.533Z,100970
2017-05-13T22:19:23.036Z,100965
2017-05-13T22:21:52.600Z,100970
2017-05-13T22:24:21.892Z,100962
2017-05-13T22:26:51.352Z,100975
2017-05-13T22:29:20.614Z,100967
2017-05-13T22:31:49.906Z,100964
2017-05-13T22:34:19.187Z,100963
2017-05-13T22:36:48.472Z,100960
2017-05-13T22:39:17.738Z,100974
2017-05-13T22:41:47.414Z,100979
2017-05-13T22:44:16.686Z,100981
2017-05-13T22:46:46.173Z,100980
2017-05-13T22:49:15.889Z,100967
2017-05-13T22:51:46.624Z,100981
2017-05-13T22:54:16.333Z,100980
2017-05-13T22:56:46.042Z,100981
2017-05-13T22:59:15.335Z,100987
2017-05-13T23:01:44.852Z,100983
2017-05-13T23:04:14.775Z,100992
2017-05-13T23:06:44.274Z,100995
2017-05-13T23:09:13.573Z,100996
2017-05-13T23:11:42.878Z,100999
2017-05-13T23:14:12.587Z,101007
2017-05-13T23:16:42.094Z,100996
2017-05-13T23:19:11.600Z,101000
2017-05-13T23:21:41.313Z,101004
2017-05-13T23:24:11.227Z,101003
2017-05-13T23:26:40.742Z,101006
2017-05-13T23:29:10.450Z,101003
2017-05-13T23:31:39.951Z,101001
2017-05-13T23:34:09.459Z,101010
2017-05-13T23:36:38.962Z,101008
2017-05-13T23:39:08.474Z,101011
2017-05-13T23:41:38.589Z,101009
2017-05-13T23:44:08.095Z,101004
2017-05-13T23:46:37.601Z,101010
2017-05-13T23:49:07.314Z,101017
2017-05-13T23:51:36.819Z,101034
2017-05-13T23:54:06.122Z,101031
2017-05-13T23:56:35.422Z,101030
2017-05-13T23:59:12.966Z,101041
